Alstead Center, New Hampshire
Current Conditions -  °F | °C
As of 12:55 AM on Sunday 28 Dec 2014 (Local Time) from KEEN Reporting Station
Overcast Overcast  
Wind Chill:   Ceiling: 6000
Heat Index:   Visibility: 10mi
Dew Point:   Wind: 0mph
Humidity: 93%   Direction: NA
Pressure: 29.93"   Gusts: NA
Location:  43.1141°N, 72.3097°W
Report Text: KEEN 280555Z AUTO 00000KT 10SM OVC060 03/02 A2993 RMK AO1 10040 21010 57037
Loading
Personal Weather Stations






























Interactive Weather Map New forecast layout! Learn more

10-Day Weather Forecast

Advertisements
Track Severe Weather on mobile